Wylie, Texas
Current Conditions -  °F | °C
As of 2:35 PM on Monday 22 Dec 2014 (Local Time) from KF46 Reporting Station
Clear Clear  
Wind Chill: 19°   Ceiling: Unl
Heat Index: 19°   Visibility: 10mi
Dew Point:   Wind: 9mph
Humidity: 45%   Direction: 270°W
Pressure: 29.54"   Gusts: NA
Location:  33.02°N, 96.51°W
Report Text: KF46 222035Z AUTO 27008KT 10SM CLR 19/06 A2954 RMK AO2 T01860064
Loading
Personal Weather Stations






























Interactive Weather Map New forecast layout! Learn more

10-Day Weather Forecast

Advertisements
Track Severe Weather on mobile